KAPG/APG METAR and TAF weather

Enter ICAO airport designator
Station Type Date Time Source
KAPG METAR 2020/11/28 19:58 UTC NOAA

KAPG 281958Z AUTO 28013G18KT 10SM CLR 14/00 A3002 RMK AO2 SLP169 T01380002 $


Station Type Date Time Source
KAPG Decoded METAR 2020/11/28 19:58 UTC NOAA

Phillips Army Air Field / Aberdeen, MD, United States (KAPG) 39-28N 076-10W
Nov 28, 2020 - 02:58 PM EST / 2020.11.28 1958 UTC
Wind: from the W (280 degrees) at 15 MPH (13 KT) gusting to 21 MPH (18 KT):0
Visibility: 10 mile(s):0
Sky conditions: clear
Temperature: 56.8 F (13.8 C)
Dew Point: 32.4 F (0.2 C)
Relative Humidity: 39%
Pressure (altimeter): 30.02 in. Hg (1016 hPa)
ob: KAPG 281958Z AUTO 28013G18KT 10SM CLR 14/00 A3002 RMK AO2 SLP169 T01380002
cycle: 20

Station Type Date Time Source
KAPG TAF UTC NOAA

Error!

Example: see airport list